createdAt,value
2019-05-20T00:01:35.124Z,99851.11
2019-05-20T00:07:06.065Z,99846.66
2019-05-20T00:09:41.230Z,99856.84
2019-05-20T00:12:19.046Z,99856.16
2019-05-20T00:14:59.520Z,99848.34
2019-05-20T00:17:33.846Z,99846.79
2019-05-20T00:26:00.761Z,99850.20
2019-05-20T00:28:34.662Z,99846.80
2019-05-20T00:31:05.765Z,99850.13
2019-05-20T00:33:36.845Z,99848.48
2019-05-20T00:36:07.940Z,99839.80
2019-05-20T00:38:39.013Z,99846.61
2019-05-20T00:41:10.158Z,99835.63
2019-05-20T00:43:41.246Z,99843.89
2019-05-20T00:46:12.335Z,99836.48
2019-05-20T00:48:44.378Z,99840.59
2019-05-20T00:51:15.450Z,99847.87
2019-05-20T00:53:46.590Z,99852.50
2019-05-20T00:56:17.680Z,99855.73
2019-05-20T00:58:48.743Z,99851.41
2019-05-20T01:01:19.819Z,99856.87
2019-05-20T01:03:50.884Z,99847.63
2019-05-20T01:06:21.964Z,99853.96
2019-05-20T01:08:53.122Z,99846.55
2019-05-20T01:11:24.167Z,99852.95
2019-05-20T01:13:55.257Z,99854.47
2019-05-20T01:16:27.282Z,99854.66
2019-05-20T01:18:58.359Z,99855.20
2019-05-20T01:21:29.444Z,99847.31
2019-05-20T01:24:00.563Z,99855.56
2019-05-20T01:26:31.664Z,99860.15
2019-05-20T01:29:04.260Z,99858.41
2019-05-20T01:31:35.336Z,99854.15
2019-05-20T01:34:06.484Z,99859.70
2019-05-20T01:36:37.694Z,99859.78
2019-05-20T01:39:08.746Z,99856.40
2019-05-20T01:41:39.843Z,99854.83
2019-05-20T01:44:10.981Z,99850.47
2019-05-20T01:46:42.088Z,99848.80
2019-05-20T01:49:13.367Z,99849.74
2019-05-20T01:51:44.497Z,99852.61
2019-05-20T01:54:15.744Z,99850.46
2019-05-20T01:56:46.816Z,99854.67
2019-05-20T01:59:17.900Z,99852.16
2019-05-20T02:01:48.989Z,99856.84
2019-05-20T02:04:20.068Z,99849.79
2019-05-20T02:06:52.217Z,99851.78
2019-05-20T02:09:23.298Z,99849.16
2019-05-20T02:11:54.408Z,99857.41
2019-05-20T02:14:29.848Z,99846.82
2019-05-20T02:17:02.802Z,99844.27
2019-05-20T02:19:35.080Z,99846.19
2019-05-20T02:22:06.205Z,99840.12
2019-05-20T02:24:37.440Z,99845.56
2019-05-20T02:27:08.542Z,99850.14
2019-05-20T02:29:39.639Z,99847.85
2019-05-20T02:32:10.737Z,99849.77
2019-05-20T02:34:41.808Z,99849.77
2019-05-20T02:37:13.532Z,99848.02
2019-05-20T02:39:44.697Z,99853.00
2019-05-20T02:42:15.800Z,99852.23
2019-05-20T02:44:46.887Z,99857.67
2019-05-20T02:47:18.023Z,99859.02
2019-05-20T02:49:49.334Z,99862.17
2019-05-20T02:52:20.603Z,99858.78
2019-05-20T02:54:51.700Z,99850.79
2019-05-20T02:57:22.865Z,99858.55
2019-05-20T02:59:53.967Z,99845.72
2019-05-20T03:02:25.074Z,99853.95
2019-05-20T03:04:56.534Z,99846.06
2019-05-20T03:07:27.707Z,99855.06
2019-05-20T03:09:58.788Z,99860.20
2019-05-20T03:12:30.032Z,99856.34
2019-05-20T03:15:01.117Z,99854.20
2019-05-20T03:17:32.213Z,99858.76
2019-05-20T03:20:04.125Z,99844.12
2019-05-20T03:22:35.980Z,99848.15
2019-05-20T03:25:08.328Z,99849.66
2019-05-20T03:27:39.873Z,99854.63
2019-05-20T03:30:11.340Z,99857.08
2019-05-20T03:32:42.656Z,99849.55
2019-05-20T03:35:13.777Z,99849.19
2019-05-20T03:37:51.172Z,99841.13
2019-05-20T03:40:22.238Z,99841.77
2019-05-20T03:42:53.689Z,99841.43
2019-05-20T03:45:24.773Z,99844.58
2019-05-20T03:47:56.751Z,99842.37
2019-05-20T03:50:27.951Z,99846.97
2019-05-20T03:52:59.081Z,99858.64
2019-05-20T03:55:30.194Z,99851.53
2019-05-20T03:58:01.738Z,99851.53
2019-05-20T04:00:47.593Z,99854.21
2019-05-20T04:03:18.984Z,99849.72
2019-05-20T04:05:50.082Z,99841.36
2019-05-20T04:08:21.136Z,99844.04
2019-05-20T04:10:52.261Z,99845.75
2019-05-20T04:13:23.326Z,99844.34
2019-05-20T04:15:54.468Z,99846.97
2019-05-20T04:18:25.827Z,99850.89
2019-05-20T04:20:56.889Z,99844.98
2019-05-20T04:23:29.796Z,99851.16
2019-05-20T04:26:01.232Z,99848.37
2019-05-20T04:28:32.407Z,99859.06
2019-05-20T04:31:03.531Z,99853.59
2019-05-20T04:33:34.609Z,99858.42
2019-05-20T04:36:05.777Z,99872.56
2019-05-20T04:38:36.850Z,99866.65
2019-05-20T04:41:07.921Z,99870.98
2019-05-20T04:43:39.049Z,99867.77
2019-05-20T04:46:10.135Z,99865.84
2019-05-20T04:48:41.223Z,99863.59
2019-05-20T04:51:12.493Z,99861.72
2019-05-20T04:53:44.569Z,99870.14
2019-05-20T04:56:15.739Z,99861.55
2019-05-20T04:58:46.821Z,99864.70
2019-05-20T05:01:17.906Z,99858.86
2019-05-20T05:03:48.983Z,99861.08
2019-05-20T05:06:20.083Z,99870.55
2019-05-20T05:08:51.238Z,99868.44
2019-05-20T05:11:22.399Z,99868.09
2019-05-20T05:13:54.659Z,99868.16
2019-05-20T05:16:25.923Z,99867.36
2019-05-20T05:18:56.969Z,99874.61
2019-05-20T05:21:28.065Z,99868.87
2019-05-20T05:23:59.702Z,99868.40
2019-05-20T05:26:30.988Z,99877.23
2019-05-20T05:29:02.045Z,99871.32
2019-05-20T05:31:33.387Z,99868.16
2019-05-20T05:34:04.447Z,99874.34
2019-05-20T05:36:35.512Z,99870.78
2019-05-20T05:39:07.573Z,99868.03
2019-05-20T05:41:38.662Z,99867.09
2019-05-20T05:44:09.766Z,99866.12
2019-05-20T05:46:40.845Z,99873.64
2019-05-20T05:49:11.913Z,99870.55
2019-05-20T05:51:43.015Z,99861.01
2019-05-20T05:54:14.149Z,99864.47
2019-05-20T05:56:46.321Z,99867.97
2019-05-20T05:59:18.056Z,99873.64
2019-05-20T06:01:49.143Z,99879.31
2019-05-20T06:04:20.212Z,99882.34
2019-05-20T06:06:52.077Z,99884.38
2019-05-20T06:09:23.132Z,99885.09
2019-05-20T06:11:55.764Z,99876.25
2019-05-20T06:14:27.844Z,99878.30
2019-05-20T06:17:04.930Z,99885.72
2019-05-20T06:19:36.060Z,99888.16
2019-05-20T06:22:07.129Z,99893.41
2019-05-20T06:24:38.235Z,99896.22
2019-05-20T06:27:09.389Z,99890.70
2019-05-20T06:29:44.163Z,99893.52
2019-05-20T06:32:15.560Z,99892.39
2019-05-20T06:34:48.505Z,99891.78
2019-05-20T06:37:30.000Z,99891.31
2019-05-20T06:40:02.079Z,99892.15
2019-05-20T06:42:33.920Z,99895.02
2019-05-20T06:45:08.234Z,99889.64
2019-05-20T06:47:39.278Z,99893.59
2019-05-20T06:50:11.011Z,99898.41
2019-05-20T06:52:43.197Z,99904.11
2019-05-20T06:55:14.507Z,99900.70
2019-05-20T06:57:45.567Z,99903.25
2019-05-20T07:00:38.265Z,99907.52
2019-05-20T07:03:09.453Z,99897.55
2019-05-20T07:05:40.552Z,99902.53
2019-05-20T07:08:11.875Z,99907.27
2019-05-20T07:10:43.429Z,99899.34
2019-05-20T07:13:16.360Z,99906.29
2019-05-20T07:15:47.308Z,99905.57
2019-05-20T07:18:18.363Z,99903.50
2019-05-20T07:20:49.450Z,99909.47
2019-05-20T07:23:20.526Z,99902.99
2019-05-20T07:25:51.607Z,99900.52
2019-05-20T07:28:23.178Z,99895.64
2019-05-20T07:30:54.281Z,99894.44
2019-05-20T07:33:25.357Z,99905.50
2019-05-20T07:35:56.420Z,99901.78
2019-05-20T07:38:27.503Z,99902.77
2019-05-20T07:40:58.571Z,99894.14
2019-05-20T07:43:29.664Z,99895.41
2019-05-20T07:46:02.963Z,99893.40
2019-05-20T07:48:34.409Z,99896.34
2019-05-20T07:51:05.964Z,99895.28
2019-05-20T07:53:37.513Z,99897.71
2019-05-20T07:56:16.084Z,99893.52
2019-05-20T07:58:50.515Z,99890.45
2019-05-20T08:01:21.661Z,99891.53
2019-05-20T08:03:53.405Z,99898.00
2019-05-20T08:06:24.658Z,99892.73
2019-05-20T08:08:55.824Z,99891.70
2019-05-20T08:11:26.891Z,99887.00
2019-05-20T08:13:57.971Z,99896.64
2019-05-20T08:16:29.013Z,99888.76
2019-05-20T08:19:00.098Z,99883.17
2019-05-20T08:21:31.188Z,99880.69
2019-05-20T08:24:02.584Z,99883.98
2019-05-20T08:26:34.937Z,99890.44
2019-05-20T08:29:06.159Z,99885.64
2019-05-20T08:31:37.232Z,99886.72
2019-05-20T08:34:08.573Z,99894.56
2019-05-20T08:36:39.641Z,99890.72
2019-05-20T08:39:10.789Z,99893.42
2019-05-20T08:41:41.993Z,99893.92
2019-05-20T08:44:13.241Z,99894.91
2019-05-20T08:46:45.375Z,99893.28
2019-05-20T08:49:16.453Z,99885.78
2019-05-20T08:51:47.515Z,99888.27
2019-05-20T08:54:18.574Z,99889.81
2019-05-20T08:56:49.705Z,99891.36
2019-05-20T08:59:20.772Z,99893.30
2019-05-20T09:01:51.846Z,99883.16
2019-05-20T09:04:22.987Z,99882.88
2019-05-20T09:06:54.323Z,99893.30
2019-05-20T09:09:25.584Z,99893.48
2019-05-20T09:11:56.718Z,99897.36
2019-05-20T09:14:27.925Z,99901.61
2019-05-20T09:16:59.050Z,99900.75
2019-05-20T09:19:30.180Z,99900.84
2019-05-20T09:22:01.397Z,99895.81
2019-05-20T09:24:32.602Z,99899.09
2019-05-20T09:27:03.787Z,99887.00
2019-05-20T09:29:37.987Z,99890.94
2019-05-20T09:32:07.719Z,99894.69
2019-05-20T09:34:38.951Z,99887.63
2019-05-20T09:37:09.975Z,99889.67
2019-05-20T09:39:41.120Z,99890.42
2019-05-20T09:42:12.217Z,99886.16
2019-05-20T09:44:43.298Z,99888.68
2019-05-20T09:47:14.451Z,99885.67
2019-05-20T09:49:45.507Z,99883.66
2019-05-20T09:52:16.569Z,99889.73
2019-05-20T09:54:47.631Z,99884.23
2019-05-20T09:57:18.715Z,99886.06
2019-05-20T09:59:49.796Z,99887.50
2019-05-20T10:02:20.916Z,99888.20
2019-05-20T10:04:52.046Z,99886.06
2019-05-20T10:07:24.155Z,99892.13
2019-05-20T10:09:56.159Z,99889.64
2019-05-20T10:12:44.589Z,99888.38
2019-05-20T10:15:00.091Z,99888.69
2019-05-20T10:17:33.806Z,99885.63
2019-05-20T10:20:09.441Z,99890.16
2019-05-20T10:22:40.621Z,99894.69
2019-05-20T10:25:13.316Z,99895.66
2019-05-20T10:27:44.362Z,99891.33
2019-05-20T10:30:16.373Z,99891.69
2019-05-20T10:32:47.516Z,99895.92
2019-05-20T10:35:18.806Z,99890.91
2019-05-20T10:37:49.890Z,99886.67
2019-05-20T10:40:21.097Z,99896.13
2019-05-20T10:42:52.168Z,99882.50
2019-05-20T10:45:23.262Z,99885.98
2019-05-20T10:47:55.088Z,99878.62
2019-05-20T10:50:26.185Z,99884.72
2019-05-20T10:52:57.264Z,99883.36
2019-05-20T10:55:28.339Z,99879.70
2019-05-20T10:57:59.410Z,99882.48
2019-05-20T11:00:30.557Z,99890.50
2019-05-20T11:03:01.615Z,99884.98
2019-05-20T11:05:33.554Z,99887.67
2019-05-20T11:08:04.623Z,99896.66
2019-05-20T11:10:35.801Z,99891.86
2019-05-20T11:13:06.910Z,99890.11
2019-05-20T11:15:38.008Z,99896.48
2019-05-20T11:18:09.080Z,99894.56
2019-05-20T11:20:40.176Z,99888.37
2019-05-20T11:23:11.240Z,99894.91
2019-05-20T11:25:42.320Z,99894.81
2019-05-20T11:28:13.402Z,99892.47
2019-05-20T11:30:44.469Z,99893.95
2019-05-20T11:33:15.532Z,99893.55
2019-05-20T11:35:48.881Z,99900.02
2019-05-20T11:38:19.947Z,99899.53
2019-05-20T11:40:51.050Z,99895.13
2019-05-20T11:43:22.113Z,99893.95
2019-05-20T11:45:53.348Z,99889.58
2019-05-20T11:48:24.427Z,99881.91
2019-05-20T11:50:55.487Z,99884.86
2019-05-20T11:53:26.568Z,99886.45
2019-05-20T11:55:57.656Z,99880.13
2019-05-20T11:58:28.716Z,99884.34
2019-05-20T12:00:59.781Z,99877.88
2019-05-20T12:03:30.856Z,99878.82
2019-05-20T12:06:02.762Z,99879.19
2019-05-20T12:08:34.533Z,99876.80
2019-05-20T12:11:05.582Z,99872.32
2019-05-20T12:13:37.539Z,99870.91
2019-05-20T12:16:09.663Z,99867.00
2019-05-20T12:18:40.754Z,99862.88
2019-05-20T12:21:11.795Z,99855.83
2019-05-20T12:23:42.873Z,99853.23
2019-05-20T12:26:13.929Z,99850.63
2019-05-20T12:28:45.012Z,99850.83
2019-05-20T12:31:16.115Z,99837.48
2019-05-20T12:33:47.368Z,99841.98
2019-05-20T12:36:18.791Z,99830.45
2019-05-20T12:38:49.866Z,99826.67
2019-05-20T12:41:21.203Z,99823.77
2019-05-20T12:44:09.919Z,99824.11
2019-05-20T12:46:25.010Z,99815.86
2019-05-20T12:48:56.140Z,99812.21
2019-05-20T12:51:27.239Z,99815.68
2019-05-20T12:53:58.348Z,99809.27
2019-05-20T12:56:29.408Z,99802.27
2019-05-20T12:59:00.468Z,99792.80
2019-05-20T13:01:31.522Z,99787.87
2019-05-20T13:04:02.800Z,99789.00
2019-05-20T13:06:33.900Z,99788.42
2019-05-20T13:09:07.358Z,99779.80
2019-05-20T13:11:38.414Z,99783.89
2019-05-20T13:14:09.477Z,99780.05
2019-05-20T13:16:40.546Z,99782.89
2019-05-20T13:19:11.603Z,99775.88
2019-05-20T13:21:42.676Z,99779.44
2019-05-20T13:24:13.735Z,99777.48
2019-05-20T13:26:46.307Z,99760.70
2019-05-20T13:29:17.360Z,99757.11
2019-05-20T13:31:48.412Z,99753.77
2019-05-20T13:37:34.335Z,99750.94
2019-05-20T13:40:07.081Z,99734.02
2019-05-20T13:42:38.231Z,99735.86
2019-05-20T13:45:09.990Z,99737.33
2019-05-20T13:47:42.540Z,99742.16
2019-05-20T13:50:14.300Z,99730.95
2019-05-20T13:52:45.390Z,99733.78
2019-05-20T13:55:16.574Z,99723.90
2019-05-20T13:57:47.638Z,99718.95
2019-05-20T14:00:18.877Z,99720.31
2019-05-20T14:02:50.403Z,99709.83
2019-05-20T14:05:21.480Z,99704.77
2019-05-20T14:07:53.531Z,99700.05
2019-05-20T14:10:24.614Z,99699.94
2019-05-20T14:12:55.683Z,99700.31
2019-05-20T14:15:26.751Z,99702.05
2019-05-20T14:17:57.885Z,99696.36
2019-05-20T14:20:28.951Z,99694.63
2019-05-20T14:23:00.026Z,99699.34
2019-05-20T14:25:32.192Z,99693.65
2019-05-20T14:28:03.243Z,99685.50
2019-05-20T14:30:34.365Z,99696.37
2019-05-20T14:33:05.501Z,99687.47
2019-05-20T14:35:36.612Z,99693.88
2019-05-20T14:38:07.678Z,99683.77
2019-05-20T14:40:39.850Z,99681.70
2019-05-20T14:43:11.044Z,99683.55
2019-05-20T14:45:42.502Z,99673.94
2019-05-20T14:48:13.788Z,99668.73
2019-05-20T14:50:44.964Z,99664.92
2019-05-20T14:53:16.061Z,99661.12
2019-05-20T14:55:47.139Z,99666.43
2019-05-20T14:58:18.226Z,99670.73
2019-05-20T15:00:49.283Z,99673.33
2019-05-20T15:03:20.351Z,99676.69
2019-05-20T15:05:51.661Z,99674.20
2019-05-20T15:08:22.833Z,99674.84
2019-05-20T15:10:54.649Z,99669.03
2019-05-20T15:13:25.704Z,99669.14
2019-05-20T15:15:56.791Z,99669.03
2019-05-20T15:18:28.012Z,99675.21
2019-05-20T15:20:59.118Z,99664.70
2019-05-20T15:23:30.281Z,99658.28
2019-05-20T15:26:01.375Z,99651.88
2019-05-20T15:28:32.476Z,99658.03
2019-05-20T15:31:03.548Z,99649.28
2019-05-20T15:33:34.604Z,99644.56
2019-05-20T15:36:05.850Z,99642.61
2019-05-20T15:38:37.062Z,99659.64
2019-05-20T15:41:08.123Z,99665.19
2019-05-20T15:43:39.200Z,99663.34
2019-05-20T15:46:10.292Z,99666.66
2019-05-20T15:48:41.409Z,99667.79
2019-05-20T15:51:12.561Z,99668.28
2019-05-20T15:53:43.624Z,99679.25
2019-05-20T15:56:14.684Z,99678.05
2019-05-20T15:58:45.929Z,99681.47
2019-05-20T16:01:17.521Z,99682.60
2019-05-20T16:03:51.364Z,99686.55
2019-05-20T16:06:21.577Z,99689.88
2019-05-20T16:08:53.508Z,99687.41
2019-05-20T16:11:24.637Z,99691.36
2019-05-20T16:13:55.723Z,99691.09
2019-05-20T16:16:27.110Z,99687.75
2019-05-20T16:18:58.311Z,99696.14
2019-05-20T16:21:29.498Z,99698.73
2019-05-20T16:24:00.565Z,99705.39
2019-05-20T16:26:31.617Z,99713.27
2019-05-20T16:29:03.454Z,99714.00
2019-05-20T16:31:34.506Z,99719.69
2019-05-20T16:34:05.557Z,99712.14
2019-05-20T16:36:36.886Z,99720.16
2019-05-20T16:39:08.704Z,99714.11
2019-05-20T16:41:39.780Z,99719.41
2019-05-20T16:44:10.827Z,99712.98
2019-05-20T16:46:41.882Z,99723.70
2019-05-20T16:49:13.638Z,99724.79
2019-05-20T16:51:44.683Z,99733.06
2019-05-20T16:54:15.773Z,99742.66
2019-05-20T16:56:46.786Z,99742.53
2019-05-20T16:59:17.865Z,99743.38
2019-05-20T17:01:48.926Z,99741.39
2019-05-20T17:04:20.168Z,99746.27
2019-05-20T17:06:52.198Z,99747.98
2019-05-20T17:09:23.254Z,99747.35
2019-05-20T17:11:54.329Z,99754.34
2019-05-20T17:14:25.414Z,99758.64
2019-05-20T17:16:56.446Z,99756.77
2019-05-20T17:19:27.672Z,99762.44
2019-05-20T17:21:58.735Z,99758.61
2019-05-20T17:24:29.821Z,99762.39
2019-05-20T17:27:01.531Z,99759.45
2019-05-20T17:29:32.751Z,99757.19
2019-05-20T17:32:03.855Z,99763.71
2019-05-20T17:34:34.908Z,99760.86
2019-05-20T17:37:06.030Z,99770.55
2019-05-20T17:39:37.127Z,99765.12
2019-05-20T17:42:08.288Z,99772.09
2019-05-20T17:44:39.308Z,99770.20
2019-05-20T17:47:10.368Z,99765.48
2019-05-20T17:49:41.426Z,99770.84
2019-05-20T17:52:12.505Z,99765.28
2019-05-20T17:54:43.557Z,99756.63
2019-05-20T17:57:15.001Z,99765.86
2019-05-20T17:59:46.056Z,99768.90
2019-05-20T18:02:17.130Z,99758.16
2019-05-20T18:04:48.355Z,99758.97
2019-05-20T18:07:19.440Z,99766.94
2019-05-20T18:09:52.134Z,99770.84
2019-05-20T18:12:23.207Z,99781.48
2019-05-20T18:14:56.265Z,99786.73
2019-05-20T18:17:27.352Z,99786.97
2019-05-20T18:19:58.405Z,99787.19
2019-05-20T18:22:29.467Z,99788.26
2019-05-20T18:25:00.538Z,99789.84
2019-05-20T18:27:31.873Z,99790.91
2019-05-20T18:30:02.928Z,99788.30
2019-05-20T18:32:33.990Z,99792.58
2019-05-20T18:35:05.922Z,99801.27
2019-05-20T18:37:36.979Z,99801.37
2019-05-20T18:40:14.060Z,99796.19
2019-05-20T18:42:41.228Z,99800.95
2019-05-20T18:45:12.520Z,99801.27
2019-05-20T18:47:43.575Z,99805.74
2019-05-20T18:50:15.081Z,99799.69
2019-05-20T18:52:46.140Z,99807.15
2019-05-20T18:55:17.199Z,99805.98
2019-05-20T18:57:48.251Z,99808.17
2019-05-20T19:00:19.557Z,99810.09
2019-05-20T19:02:50.591Z,99807.62
2019-05-20T19:05:21.661Z,99805.88
2019-05-20T19:07:53.498Z,99806.45
2019-05-20T19:10:24.656Z,99804.06
2019-05-20T19:12:55.763Z,99812.30
2019-05-20T19:15:26.915Z,99803.53
2019-05-20T19:17:58.022Z,99803.24
2019-05-20T19:20:29.108Z,99800.76
2019-05-20T19:23:00.173Z,99804.03
2019-05-20T19:25:37.709Z,99793.02
2019-05-20T19:28:04.036Z,99794.85
2019-05-20T19:30:35.118Z,99790.15
2019-05-20T19:33:06.685Z,99794.80
2019-05-20T19:35:37.731Z,99790.55
2019-05-20T19:38:08.899Z,99787.58
2019-05-20T19:40:39.940Z,99789.89
2019-05-20T19:43:10.992Z,99792.33
2019-05-20T19:45:43.026Z,99789.81
2019-05-20T19:48:14.073Z,99793.21
2019-05-20T19:50:45.129Z,99793.42
2019-05-20T19:53:16.216Z,99799.40
2019-05-20T19:55:47.295Z,99804.63
2019-05-20T19:58:18.429Z,99802.62
2019-05-20T20:00:50.077Z,99795.59
2019-05-20T20:03:21.111Z,99802.83
2019-05-20T20:05:52.178Z,99800.70
2019-05-20T20:08:23.222Z,99805.71
2019-05-20T20:10:54.332Z,99800.44
2019-05-20T20:13:25.384Z,99798.69
2019-05-20T20:15:56.453Z,99796.56
2019-05-20T20:18:27.517Z,99795.81
2019-05-20T20:20:58.574Z,99789.55
2019-05-20T20:23:29.675Z,99791.10
2019-05-20T20:26:00.751Z,99790.32
2019-05-20T20:28:31.818Z,99786.75
2019-05-20T20:31:02.909Z,99790.92
2019-05-20T20:33:34.028Z,99788.80
2019-05-20T20:36:05.105Z,99787.05
2019-05-20T20:38:36.142Z,99795.16
2019-05-20T20:41:07.243Z,99794.97
2019-05-20T20:43:38.357Z,99801.14
2019-05-20T20:46:09.441Z,99800.53
2019-05-20T20:48:42.048Z,99794.48
2019-05-20T20:51:13.562Z,99801.04
2019-05-20T20:53:44.640Z,99799.03
2019-05-20T20:56:24.870Z,99805.98
2019-05-20T20:58:49.540Z,99799.41
2019-05-20T21:01:21.603Z,99798.83
2019-05-20T21:03:53.627Z,99787.37
2019-05-20T21:06:24.754Z,99795.20
2019-05-20T21:08:55.821Z,99799.81
2019-05-20T21:11:26.893Z,99781.13
2019-05-20T21:13:57.951Z,99790.17
2019-05-20T21:16:29.003Z,99793.47
2019-05-20T21:19:00.087Z,99802.13
2019-05-20T21:21:31.271Z,99801.38
2019-05-20T21:24:02.607Z,99797.89
2019-05-20T21:26:33.655Z,99790.75
2019-05-20T21:29:04.715Z,99786.23
2019-05-20T21:31:35.782Z,99785.48
2019-05-20T21:34:06.856Z,99775.64
2019-05-20T21:36:47.213Z,99772.95
2019-05-20T21:39:10.731Z,99787.39
2019-05-20T21:41:41.762Z,99787.11
2019-05-20T21:44:20.584Z,99796.24
2019-05-20T21:46:52.730Z,99795.97
2019-05-20T21:49:23.848Z,99784.99
2019-05-20T21:51:54.889Z,99763.98
2019-05-20T21:54:25.959Z,99769.58
2019-05-20T21:56:57.029Z,99778.62
2019-05-20T21:59:28.110Z,99776.00
2019-05-20T22:01:59.179Z,99775.22
2019-05-20T22:04:30.250Z,99782.05
2019-05-20T22:07:01.298Z,99775.90
2019-05-20T22:09:32.360Z,99772.02
2019-05-20T22:12:03.449Z,99778.36
2019-05-20T22:14:34.505Z,99781.66
2019-05-20T22:17:05.864Z,99777.81
2019-05-20T22:19:36.927Z,99778.38
2019-05-20T22:22:19.488Z,99779.33
2019-05-20T22:24:50.609Z,99778.45
2019-05-20T22:27:21.671Z,99780.08
2019-05-20T22:29:53.611Z,99777.98
2019-05-20T22:32:24.663Z,99781.15
2019-05-20T22:34:55.722Z,99777.67
2019-05-20T22:37:26.786Z,99794.83
2019-05-20T22:39:57.839Z,99796.73
2019-05-20T22:42:28.909Z,99793.36
2019-05-20T22:44:59.987Z,99788.92
2019-05-20T22:47:31.154Z,99794.59
2019-05-20T22:50:02.206Z,99790.54
2019-05-20T22:52:34.922Z,99780.31
2019-05-20T22:55:06.727Z,99780.07
2019-05-20T22:57:40.729Z,99787.58
2019-05-20T23:00:12.527Z,99782.52
2019-05-20T23:02:43.607Z,99777.86
2019-05-20T23:05:14.938Z,99762.02
2019-05-20T23:07:46.015Z,99767.64
2019-05-20T23:10:17.920Z,99762.86
2019-05-20T23:12:48.992Z,99763.66
2019-05-20T23:15:22.373Z,99763.99
2019-05-20T23:17:53.640Z,99762.98
2019-05-20T23:20:24.693Z,99763.30
2019-05-20T23:22:55.856Z,99759.56
2019-05-20T23:25:26.920Z,99758.36
2019-05-20T23:27:58.530Z,99758.72
2019-05-20T23:30:29.575Z,99755.63
2019-05-20T23:33:00.673Z,99762.50
2019-05-20T23:35:31.819Z,99755.95
2019-05-20T23:38:02.912Z,99749.89
2019-05-20T23:40:34.155Z,99747.74
2019-05-20T23:43:05.265Z,99751.08
2019-05-20T23:45:36.334Z,99759.72
2019-05-20T23:48:07.386Z,99757.18
2019-05-20T23:50:38.460Z,99753.15
2019-05-20T23:53:09.561Z,99749.22
2019-05-20T23:55:40.628Z,99753.25
2019-05-20T23:58:12.685Z,99766.69
